CFE7JL EIDW-EGLC
Flight info
| Callsign | CFE7JL |
|---|---|
| Flight time | N/A |
| Altitude | 33000 |
| Route | ENDEQ Q36 NOSLO Z197 LISTO |
| Aircraft | E190/M-SDE3GILORVW/S |
Departure
| Time | 2026-05-03 20:26 |
|---|---|
| Airport | Dublin Airport (EIDW) |
Arrival
| Time | N/A |
|---|---|
| Airport | London City Airport (EGLC) |
| Time | Latitude | Longitude | Altitude | Speed | Heading |
|---|---|---|---|---|---|
| 2026-05-03 20:15 | 53.42748 | -6.24816 | 210 ft | 0 kts | 357° |
| 2026-05-03 20:16 | 53.42747 | -6.24815 | 210 ft | 2 kts | 357° |
| 2026-05-03 20:17 | 53.42722 | -6.24815 | 210 ft | 4 kts | 5° |
| 2026-05-03 20:17 | 53.42696 | -6.24822 | 216 ft | 4 kts | 20° |
| 2026-05-03 20:17 | 53.42680 | -6.24834 | 213 ft | 4 kts | 41° |
| 2026-05-03 20:17 | 53.42667 | -6.24859 | 218 ft | 4 kts | 48° |
| 2026-05-03 20:18 | 53.42647 | -6.24886 | 210 ft | 4 kts | 11° |
| 2026-05-03 20:18 | 53.42615 | -6.24878 | 210 ft | 2 kts | 331° |
| 2026-05-03 20:18 | 53.42613 | -6.24876 | 210 ft | 0 kts | 331° |
| 2026-05-03 20:20 | 53.42625 | -6.24887 | 210 ft | 4 kts | 331° |
| 2026-05-03 20:20 | 53.42662 | -6.24924 | 210 ft | 8 kts | 327° |
| 2026-05-03 20:20 | 53.42722 | -6.24987 | 211 ft | 12 kts | 329° |
| 2026-05-03 20:20 | 53.42769 | -6.25095 | 212 ft | 12 kts | 251° |
| 2026-05-03 20:21 | 53.42728 | -6.25153 | 213 ft | 7 kts | 237° |
| 2026-05-03 20:21 | 53.42694 | -6.25227 | 215 ft | 9 kts | 230° |
| 2026-05-03 20:21 | 53.42644 | -6.25318 | 213 ft | 12 kts | 225° |
| 2026-05-03 20:21 | 53.42577 | -6.25431 | 208 ft | 15 kts | 225° |
| 2026-05-03 20:22 | 53.42498 | -6.25566 | 218 ft | 17 kts | 225° |
| 2026-05-03 20:22 | 53.42409 | -6.25718 | 210 ft | 19 kts | 225° |
| 2026-05-03 20:22 | 53.42339 | -6.25836 | 214 ft | 15 kts | 225° |
| 2026-05-03 20:22 | 53.42270 | -6.25982 | 215 ft | 17 kts | 247° |
| 2026-05-03 20:23 | 53.42260 | -6.26190 | 210 ft | 19 kts | 275° |
| 2026-05-03 20:23 | 53.42273 | -6.26425 | 210 ft | 21 kts | 276° |
| 2026-05-03 20:23 | 53.42289 | -6.26683 | 210 ft | 23 kts | 274° |
| 2026-05-03 20:23 | 53.42304 | -6.26963 | 210 ft | 25 kts | 276° |
| 2026-05-03 20:24 | 53.42319 | -6.27259 | 209 ft | 27 kts | 275° |
| 2026-05-03 20:24 | 53.42338 | -6.27583 | 217 ft | 28 kts | 275° |
| 2026-05-03 20:24 | 53.42360 | -6.27913 | 210 ft | 30 kts | 274° |
| 2026-05-03 20:24 | 53.42380 | -6.28263 | 218 ft | 31 kts | 276° |
| 2026-05-03 20:25 | 53.42397 | -6.28628 | 210 ft | 32 kts | 276° |
| 2026-05-03 20:25 | 53.42407 | -6.28835 | 210 ft | 15 kts | 274° |
| 2026-05-03 20:25 | 53.42397 | -6.29016 | 211 ft | 17 kts | 240° |
| 2026-05-03 20:25 | 53.42286 | -6.29072 | 212 ft | 19 kts | 169° |
| 2026-05-03 20:26 | 53.42229 | -6.28889 | 209 ft | 20 kts | 96° |
| 2026-05-03 20:26 | 53.42208 | -6.28414 | 214 ft | 75 kts | 95° |
| 2026-05-03 20:26 | 53.42155 | -6.27099 | 216 ft | 147 kts | 91° |
| 2026-05-03 20:26 | 53.42028 | -6.25416 | 1045 ft | 147 kts | 95° |
| 2026-05-03 20:27 | 53.41864 | -6.23482 | 1280 ft | 185 kts | 94° |
| 2026-05-03 20:27 | 53.41753 | -6.21279 | 2008 ft | 195 kts | 91° |
| 2026-05-03 20:27 | 53.41651 | -6.18905 | 2700 ft | 214 kts | 91° |
| 2026-05-03 20:27 | 53.41528 | -6.16321 | 3471 ft | 232 kts | 92° |
| 2026-05-03 20:28 | 53.41373 | -6.13524 | 4215 ft | 248 kts | 93° |
| 2026-05-03 20:28 | 53.41203 | -6.10571 | 5145 ft | 257 kts | 93° |
| 2026-05-03 20:28 | 53.41033 | -6.07575 | 6048 ft | 264 kts | 93° |
| 2026-05-03 20:28 | 53.40903 | -6.04482 | 6905 ft | 267 kts | 87° |
| 2026-05-03 20:29 | 53.41018 | -6.01368 | 7744 ft | 270 kts | 82° |
| 2026-05-03 20:29 | 53.41256 | -5.98224 | 8564 ft | 274 kts | 81° |
| 2026-05-03 20:29 | 53.41505 | -5.95000 | 9046 ft | 281 kts | 82° |
| 2026-05-03 20:29 | 53.41743 | -5.91712 | 9034 ft | 284 kts | 82° |
| 2026-05-03 20:30 | 53.41971 | -5.88434 | 9012 ft | 281 kts | 82° |
| 2026-05-03 20:30 | 53.42194 | -5.85189 | 9003 ft | 280 kts | 82° |
| 2026-05-03 20:30 | 53.42413 | -5.81977 | 9513 ft | 277 kts | 83° |
| 2026-05-03 20:30 | 53.42634 | -5.78728 | 10262 ft | 287 kts | 83° |
| 2026-05-03 20:31 | 53.42866 | -5.75296 | 10708 ft | 305 kts | 83° |
| 2026-05-03 20:31 | 53.43111 | -5.71662 | 11186 ft | 322 kts | 83° |
| 2026-05-03 20:31 | 53.43367 | -5.67835 | 11726 ft | 336 kts | 83° |
| 2026-05-03 20:31 | 53.43629 | -5.63906 | 12548 ft | 340 kts | 83° |
| 2026-05-03 20:32 | 53.43892 | -5.59942 | 13505 ft | 344 kts | 83° |
| 2026-05-03 20:32 | 53.44152 | -5.55980 | 14363 ft | 348 kts | 83° |
| 2026-05-03 20:32 | 53.44418 | -5.51920 | 15174 ft | 354 kts | 83° |
| 2026-05-03 20:32 | 53.44538 | -5.47770 | 16027 ft | 358 kts | 90° |
| 2026-05-03 20:33 | 53.44448 | -5.43563 | 16885 ft | 362 kts | 92° |
| 2026-05-03 20:33 | 53.44319 | -5.39330 | 17751 ft | 366 kts | 92° |
| 2026-05-03 20:33 | 53.44197 | -5.35029 | 18530 ft | 371 kts | 92° |
| 2026-05-03 20:33 | 53.44085 | -5.30690 | 19247 ft | 375 kts | 91° |
| 2026-05-03 20:34 | 53.43972 | -5.26303 | 19929 ft | 379 kts | 92° |
| 2026-05-03 20:34 | 53.43855 | -5.21871 | 20613 ft | 382 kts | 92° |
| 2026-05-03 20:34 | 53.43736 | -5.17394 | 21243 ft | 386 kts | 92° |
| 2026-05-03 20:34 | 53.43609 | -5.12879 | 21852 ft | 390 kts | 92° |
| 2026-05-03 20:35 | 53.43466 | -5.08322 | 22465 ft | 394 kts | 92° |
| 2026-05-03 20:35 | 53.43317 | -5.03719 | 23091 ft | 397 kts | 92° |
| 2026-05-03 20:35 | 53.43166 | -4.99059 | 23688 ft | 402 kts | 92° |
| 2026-05-03 20:35 | 53.43016 | -4.94368 | 24259 ft | 405 kts | 93° |
| 2026-05-03 20:36 | 53.42863 | -4.89683 | 24822 ft | 408 kts | 93° |
| 2026-05-03 20:36 | 53.42703 | -4.84845 | 25386 ft | 412 kts | 93° |
| 2026-05-03 20:36 | 53.42544 | -4.80091 | 25913 ft | 415 kts | 93° |
| 2026-05-03 20:36 | 53.42383 | -4.75240 | 26415 ft | 419 kts | 93° |
| 2026-05-03 20:37 | 53.42219 | -4.70337 | 26895 ft | 422 kts | 93° |
| 2026-05-03 20:37 | 53.42050 | -4.65407 | 27341 ft | 425 kts | 93° |
| 2026-05-03 20:37 | 53.41878 | -4.60442 | 27781 ft | 428 kts | 93° |
| 2026-05-03 20:37 | 53.41703 | -4.55448 | 28224 ft | 431 kts | 93° |
| 2026-05-03 20:38 | 53.41525 | -4.50420 | 28620 ft | 434 kts | 94° |
| 2026-05-03 20:38 | 53.41344 | -4.45351 | 29027 ft | 436 kts | 94° |
| 2026-05-03 20:38 | 53.41160 | -4.40288 | 29605 ft | 435 kts | 94° |
| 2026-05-03 20:38 | 53.40974 | -4.35227 | 30146 ft | 434 kts | 94° |
| 2026-05-03 20:39 | 53.40786 | -4.30175 | 30528 ft | 435 kts | 94° |
| 2026-05-03 20:39 | 53.40596 | -4.25110 | 30893 ft | 436 kts | 94° |
| 2026-05-03 20:39 | 53.40402 | -4.20029 | 31272 ft | 437 kts | 95° |
| 2026-05-03 20:39 | 53.40207 | -4.14947 | 31657 ft | 437 kts | 95° |
| 2026-05-03 20:40 | 53.40010 | -4.09854 | 32003 ft | 438 kts | 95° |
| 2026-05-03 20:40 | 53.39810 | -4.04758 | 32366 ft | 438 kts | 95° |
| 2026-05-03 20:40 | 53.39608 | -3.99682 | 32701 ft | 438 kts | 95° |
| 2026-05-03 20:40 | 53.39404 | -3.94596 | 33084 ft | 434 kts | 95° |
| 2026-05-03 20:41 | 53.39197 | -3.89532 | 33042 ft | 434 kts | 95° |
| 2026-05-03 20:41 | 53.38780 | -3.79476 | 32994 ft | 432 kts | 95° |
| 2026-05-03 20:42 | 53.38355 | -3.69406 | 32957 ft | 433 kts | 95° |
| 2026-05-03 20:42 | 53.37501 | -3.59508 | 32978 ft | 432 kts | 104° |
| 2026-05-03 20:43 | 53.36152 | -3.49698 | 32958 ft | 432 kts | 104° |
| 2026-05-03 20:43 | 53.34790 | -3.39888 | 32958 ft | 432 kts | 104° |
| 2026-05-03 20:44 | 53.33351 | -3.30121 | 32964 ft | 432 kts | 107° |
| 2026-05-03 20:44 | 53.31741 | -3.20601 | 32957 ft | 432 kts | 107° |
| 2026-05-03 20:45 | 53.30135 | -3.10940 | 32964 ft | 432 kts | 107° |
| 2026-05-03 20:45 | 53.28539 | -3.01306 | 32966 ft | 432 kts | 107° |
| 2026-05-03 20:46 | 53.26931 | -2.91642 | 32967 ft | 431 kts | 108° |
| 2026-05-03 20:46 | 53.25314 | -2.81982 | 32967 ft | 432 kts | 108° |
| 2026-05-03 20:47 | 53.23637 | -2.72362 | 32963 ft | 431 kts | 109° |
| 2026-05-03 20:47 | 53.21934 | -2.62739 | 32962 ft | 431 kts | 109° |
| 2026-05-03 20:48 | 53.20237 | -2.53150 | 32959 ft | 431 kts | 109° |
| 2026-05-03 20:48 | 53.18543 | -2.43617 | 32961 ft | 431 kts | 109° |
| 2026-05-03 20:49 | 53.16828 | -2.34022 | 32964 ft | 431 kts | 109° |
| 2026-05-03 20:49 | 53.15058 | -2.24474 | 32968 ft | 429 kts | 115° |
| 2026-05-03 20:49 | 53.14045 | -2.21137 | 32959 ft | 426 kts | 126° |
| 2026-05-03 20:50 | 53.12321 | -2.17723 | 32967 ft | 420 kts | 141° |
| 2026-05-03 20:50 | 53.08303 | -2.12597 | 32939 ft | 419 kts | 146° |
| 2026-05-03 20:51 | 53.04478 | -2.07994 | 32939 ft | 417 kts | 146° |
| 2026-05-03 20:51 | 53.00673 | -2.03382 | 32941 ft | 417 kts | 146° |
| 2026-05-03 20:52 | 52.96298 | -1.98067 | 32943 ft | 417 kts | 146° |
| 2026-05-03 20:52 | 52.91609 | -1.92382 | 32938 ft | 417 kts | 146° |
| 2026-05-03 20:53 | 52.86925 | -1.86719 | 32938 ft | 416 kts | 147° |
| 2026-05-03 20:53 | 52.82267 | -1.81105 | 32931 ft | 416 kts | 147° |
| 2026-05-03 20:54 | 52.77579 | -1.75468 | 32922 ft | 416 kts | 147° |
| 2026-05-03 20:54 | 52.70191 | -1.68113 | 32912 ft | 412 kts | 155° |
| 2026-05-03 20:55 | 52.65102 | -1.63732 | 32916 ft | 412 kts | 155° |
| 2026-05-03 20:55 | 52.60043 | -1.59402 | 32915 ft | 412 kts | 155° |
| 2026-05-03 20:56 | 52.55109 | -1.55180 | 32910 ft | 411 kts | 155° |
| 2026-05-03 20:56 | 52.50028 | -1.50841 | 32931 ft | 411 kts | 155° |
| 2026-05-03 20:57 | 52.44978 | -1.46541 | 32935 ft | 411 kts | 155° |
| 2026-05-03 20:57 | 52.39890 | -1.42219 | 32924 ft | 411 kts | 155° |
| 2026-05-03 20:58 | 52.34846 | -1.37946 | 32912 ft | 410 kts | 155° |
| 2026-05-03 20:58 | 52.29883 | -1.33338 | 32912 ft | 414 kts | 144° |
| 2026-05-03 20:59 | 52.25905 | -1.26423 | 32904 ft | 419 kts | 134° |
| 2026-05-03 20:59 | 52.22208 | -1.19151 | 32915 ft | 418 kts | 133° |
| 2026-05-03 21:00 | 52.19714 | -1.14263 | 32904 ft | 418 kts | 134° |
| 2026-05-03 21:00 | 52.14763 | -1.04605 | 32909 ft | 418 kts | 130° |
| 2026-05-03 21:01 | 52.13444 | -1.00337 | 32928 ft | 429 kts | 110° |
| 2026-05-03 21:01 | 52.12975 | -0.90585 | 32922 ft | 440 kts | 93° |
| 2026-05-03 21:01 | 52.13048 | -0.85613 | 32894 ft | 439 kts | 92° |
| 2026-05-03 21:02 | 52.13116 | -0.80620 | 32662 ft | 442 kts | 93° |
| 2026-05-03 21:02 | 52.13168 | -0.75624 | 32398 ft | 439 kts | 93° |
| 2026-05-03 21:02 | 52.13206 | -0.70633 | 31810 ft | 443 kts | 93° |
| 2026-05-03 21:02 | 52.13252 | -0.65614 | 31206 ft | 442 kts | 94° |
| 2026-05-03 21:03 | 52.13257 | -0.60668 | 30591 ft | 441 kts | 95° |
| 2026-05-03 21:03 | 52.13249 | -0.55670 | 30022 ft | 441 kts | 95° |
| 2026-05-03 21:03 | 52.13248 | -0.50665 | 29417 ft | 442 kts | 94° |
| 2026-05-03 21:03 | 52.13252 | -0.45640 | 28818 ft | 444 kts | 94° |
| 2026-05-03 21:04 | 52.13256 | -0.42312 | 28454 ft | 444 kts | 94° |
| 2026-05-03 21:04 | 52.13264 | -0.37285 | 27832 ft | 441 kts | 94° |
| 2026-05-03 21:04 | 52.13270 | -0.32309 | 27282 ft | 437 kts | 94° |
| 2026-05-03 21:04 | 52.13274 | -0.25786 | 26528 ft | 432 kts | 94° |
| 2026-05-03 21:05 | 52.13274 | -0.22484 | 26109 ft | 430 kts | 94° |
| 2026-05-03 21:05 | 52.13273 | -0.17896 | 25600 ft | 427 kts | 94° |
| 2026-05-03 21:05 | 52.13270 | -0.12958 | 25006 ft | 424 kts | 94° |
| 2026-05-03 21:05 | 52.13265 | -0.08165 | 24445 ft | 422 kts | 93° |
| 2026-05-03 21:06 | 52.13257 | -0.03403 | 23897 ft | 419 kts | 93° |
| 2026-05-03 21:06 | 52.13248 | 0.01332 | 23317 ft | 417 kts | 93° |
| 2026-05-03 21:06 | 52.13238 | 0.06016 | 22808 ft | 411 kts | 93° |
| 2026-05-03 21:06 | 52.13227 | 0.10661 | 22246 ft | 409 kts | 93° |
| 2026-05-03 21:07 | 52.13158 | 0.15185 | 22024 ft | 400 kts | 98° |
| 2026-05-03 21:07 | 52.12840 | 0.19715 | 21903 ft | 402 kts | 101° |
| 2026-05-03 21:07 | 52.12458 | 0.24225 | 21899 ft | 402 kts | 101° |
| 2026-05-03 21:07 | 52.12075 | 0.28743 | 21899 ft | 403 kts | 101° |
| 2026-05-03 21:08 | 52.11694 | 0.33277 | 21898 ft | 404 kts | 101° |
| 2026-05-03 21:08 | 52.11318 | 0.37807 | 21896 ft | 404 kts | 101° |
| 2026-05-03 21:08 | 52.10944 | 0.42287 | 21900 ft | 404 kts | 101° |
| 2026-05-03 21:08 | 52.10565 | 0.46818 | 21898 ft | 404 kts | 101° |
| 2026-05-03 21:09 | 52.10172 | 0.51372 | 21895 ft | 404 kts | 102° |
| 2026-05-03 21:09 | 52.09681 | 0.55881 | 21764 ft | 406 kts | 104° |
| 2026-05-03 21:09 | 52.09162 | 0.60355 | 20652 ft | 398 kts | 103° |
| 2026-05-03 21:09 | 52.08656 | 0.64770 | 20176 ft | 392 kts | 103° |
| 2026-05-03 21:10 | 52.08170 | 0.69062 | 19642 ft | 390 kts | 103° |
| 2026-05-03 21:10 | 52.07690 | 0.73368 | 19171 ft | 380 kts | 103° |
| 2026-05-03 21:10 | 52.07226 | 0.77529 | 18709 ft | 369 kts | 103° |
| 2026-05-03 21:10 | 52.06772 | 0.81587 | 18257 ft | 360 kts | 103° |
| 2026-05-03 21:11 | 52.06052 | 0.85389 | 17677 ft | 343 kts | 117° |
| 2026-05-03 21:11 | 52.04975 | 0.88707 | 17297 ft | 322 kts | 126° |
| 2026-05-03 21:11 | 52.03436 | 0.91225 | 16768 ft | 309 kts | 151° |
| 2026-05-03 21:11 | 52.01522 | 0.92667 | 16315 ft | 306 kts | 161° |
| 2026-05-03 21:12 | 51.99527 | 0.93926 | 15856 ft | 307 kts | 161° |
| 2026-05-03 21:12 | 51.97536 | 0.95187 | 15421 ft | 308 kts | 161° |
| 2026-05-03 21:12 | 51.95523 | 0.96457 | 14957 ft | 310 kts | 161° |
| 2026-05-03 21:12 | 51.93522 | 0.97717 | 14512 ft | 308 kts | 161° |
| 2026-05-03 21:13 | 51.91529 | 0.98972 | 14085 ft | 305 kts | 161° |
| 2026-05-03 21:13 | 51.89539 | 1.00071 | 13616 ft | 298 kts | 172° |
| 2026-05-03 21:13 | 51.87529 | 1.00296 | 13139 ft | 284 kts | 181° |
| 2026-05-03 21:13 | 51.85603 | 1.00334 | 12659 ft | 275 kts | 181° |
| 2026-05-03 21:14 | 51.83710 | 1.00375 | 12182 ft | 268 kts | 181° |
| 2026-05-03 21:14 | 51.81867 | 1.00410 | 11733 ft | 262 kts | 181° |
| 2026-05-03 21:14 | 51.80052 | 1.00441 | 11266 ft | 258 kts | 181° |
| 2026-05-03 21:14 | 51.78284 | 1.00232 | 10841 ft | 251 kts | 191° |
| 2026-05-03 21:15 | 51.76602 | 0.99673 | 10538 ft | 242 kts | 194° |
| 2026-05-03 21:15 | 51.75006 | 0.99098 | 10305 ft | 234 kts | 193° |
| 2026-05-03 21:15 | 51.73428 | 0.98541 | 10090 ft | 231 kts | 193° |
| 2026-05-03 21:15 | 51.71848 | 0.97996 | 9860 ft | 234 kts | 193° |
| 2026-05-03 21:16 | 51.70242 | 0.97451 | 9508 ft | 236 kts | 193° |
| 2026-05-03 21:16 | 51.68635 | 0.96913 | 9198 ft | 234 kts | 192° |
| 2026-05-03 21:16 | 51.67040 | 0.96383 | 8896 ft | 234 kts | 192° |
| 2026-05-03 21:16 | 51.65437 | 0.95852 | 8607 ft | 235 kts | 192° |
| 2026-05-03 21:17 | 51.63852 | 0.95332 | 8282 ft | 235 kts | 192° |
| 2026-05-03 21:17 | 51.63312 | 0.95156 | 8190 ft | 235 kts | 192° |